Time;durP1;ratioP1;P1;durP2;ratioP2;P2;SDS_P1;SDS_P2;PMS_P1;PMS_P2;Temp;Humidity;BMP_temperature;BMP_pressure;BME280_temperature;BME280_humidity;BME280_pressure;Samples;Min_cycle;Max_cycle;Signal;HPM_P1;HPM_P2
2022/03/25 00:01:08;;;;;;;127.53;63.30;;;205.50;1843.20;;;;;;4878225;29;20021;-76
2022/03/25 00:03:34;;;;;;;123.18;69.20;;;205.50;1868.80;;;;;;4878222;29;20124;-78
2022/03/25 00:06:00;;;;;;;134.00;80.40;;;205.60;1843.20;;;;;;4878048;29;20025;-77
2022/03/25 00:08:26;;;;;;;134.98;83.55;;;205.30;1868.80;;;;;;4878210;29;20414;-78
2022/03/25 00:10:52;;;;;;;127.35;72.65;;;205.40;1868.80;;;;;;4877971;29;20025;-76
2022/03/25 00:13:23;;;;;;;126.18;73.22;;;205.40;1894.40;;;;;;4878285;29;20025;-78
2022/03/25 00:15:49;;;;;;;138.95;78.85;;;205.40;1868.80;;;;;;4880523;29;20429;-77
2022/03/25 00:18:15;;;;;;;131.88;78.55;;;205.40;1868.80;;;;;;4881661;29;20219;-78
2022/03/25 00:20:41;;;;;;;138.05;78.70;;;205.40;1894.40;;;;;;4881958;29;20021;-79
2022/03/25 00:23:07;;;;;;;140.93;79.13;;;205.20;1894.40;;;;;;4881885;29;20040;-79
2022/03/25 00:25:34;;;;;;;131.52;77.60;;;205.10;1894.40;;;;;;4881600;29;20053;-77
2022/03/25 00:28:00;;;;;;;131.63;74.82;;;205.00;1894.40;;;;;;4902912;29;20017;-77
2022/03/25 00:30:27;;;;;;;150.93;83.80;;;205.50;1894.40;;;;;;4901500;29;20040;-78
2022/03/25 00:32:52;;;;;;;184.07;93.97;;;205.10;1920.00;;;;;;4882122;29;20031;-76
2022/03/25 00:35:19;;;;;;;86.82;47.47;;;205.00;1920.00;;;;;;4882238;29;20115;-77
2022/03/25 00:37:44;;;;;;;59.58;37.08;;;204.80;1920.00;;;;;;4882600;29;20035;-77
2022/03/25 00:40:11;;;;;;;80.82;44.97;;;204.80;1894.40;;;;;;4882946;29;20116;-77
2022/03/25 00:42:37;;;;;;;58.85;33.72;;;204.80;1894.40;;;;;;4882955;29;20076;-80
2022/03/25 00:45:04;;;;;;;50.28;25.90;;;180.10;1894.40;;;;;;4881134;29;20056;-79
2022/03/25 00:47:30;;;;;;;33.53;19.33;;;204.80;1894.40;;;;;;4882216;29;20455;-78
2022/03/25 00:49:56;;;;;;;28.77;17.30;;;180.10;1894.40;;;;;;4881150;29;20033;-79
2022/03/25 00:52:22;;;;;;;33.70;16.92;;;180.00;1894.40;;;;;;4882302;29;20029;-76
2022/03/25 00:54:50;;;;;;;37.83;20.88;;;179.70;1920.00;;;;;;4880702;29;20364;-76
2022/03/25 00:57:16;;;;;;;39.75;23.15;;;179.70;1920.00;;;;;;4880902;29;20452;-78
2022/03/25 00:59:42;;;;;;;57.30;30.63;;;179.60;1945.60;;;;;;4882013;29;20025;-76
2022/03/25 01:02:08;;;;;;;56.22;29.92;;;179.50;1945.60;;;;;;4880799;29;20128;-77
2022/03/25 01:04:34;;;;;;;46.92;26.48;;;179.60;1945.60;;;;;;4880910;29;20025;-76
2022/03/25 01:07:01;;;;;;;59.50;30.70;;;179.50;1971.20;;;;;;4880637;29;20345;-77
2022/03/25 01:09:27;;;;;;;40.70;24.00;;;179.40;1971.20;;;;;;4881691;29;20107;-79
2022/03/25 01:11:52;;;;;;;58.92;29.40;;;179.30;1971.20;;;;;;4880684;29;20053;-80
2022/03/25 01:14:18;;;;;;;46.35;26.48;;;179.20;1971.20;;;;;;4880586;29;20021;-77
2022/03/25 01:16:44;;;;;;;40.15;23.08;;;179.30;1971.20;;;;;;4882059;29;20028;-74
2022/03/25 01:19:11;;;;;;;32.08;18.92;;;179.30;1971.20;;;;;;4882036;29;20025;-74
2022/03/25 01:21:37;;;;;;;35.05;21.00;;;179.20;1971.20;;;;;;4881639;29;20387;-74
2022/03/25 01:24:04;;;;;;;37.25;19.63;;;179.20;1971.20;;;;;;4880618;29;20353;-74
2022/03/25 01:26:30;;;;;;;32.03;19.02;;;179.20;1971.20;;;;;;4880206;29;20045;-77
2022/03/25 01:28:56;;;;;;;30.00;19.17;;;154.50;1971.20;;;;;;4879477;29;20032;-72
2022/03/25 01:31:22;;;;;;;34.63;20.17;;;179.40;1996.80;;;;;;4880460;29;20029;-73
2022/03/25 01:33:49;;;;;;;34.78;21.88;;;154.20;1996.80;;;;;;4881457;29;20021;-74
2022/03/25 01:36:15;;;;;;;37.92;20.55;;;154.30;1996.80;;;;;;4880178;29;20028;-75
2022/03/25 01:38:42;;;;;;;43.65;23.23;;;154.20;2022.40;;;;;;4880401;29;20349;-75
2022/03/25 01:41:08;;;;;;;37.17;22.35;;;154.00;2022.40;;;;;;4881324;29;20021;-74
2022/03/25 01:43:34;;;;;;;38.65;20.88;;;154.20;2022.40;;;;;;4879947;29;20123;-76
2022/03/25 01:46:00;;;;;;;36.72;21.17;;;179.20;1996.80;;;;;;4881200;29;20025;-75
2022/03/25 01:48:27;;;;;;;36.38;19.27;;;154.20;1996.80;;;;;;4879926;29;20076;-75
2022/03/25 01:50:53;;;;;;;35.38;18.38;;;154.40;1996.80;;;;;;4879533;29;20025;-73
2022/03/25 01:53:23;;;;;;;29.08;15.98;;;154.30;1996.80;;;;;;4880122;29;20033;-77
2022/03/25 01:55:57;;;;;;;31.17;16.38;;;154.30;1971.20;;;;;;4879815;29;20029;-76
2022/03/25 01:58:25;;;;;;;49.65;24.23;;;154.30;1971.20;;;;;;4879961;29;20021;-76
2022/03/25 02:00:51;;;;;;;55.15;24.48;;;154.20;1996.80;;;;;;4880037;29;20025;-74
2022/03/25 02:03:17;;;;;;;55.60;27.25;;;154.30;1971.20;;;;;;4879605;29;20060;-75
2022/03/25 02:05:44;;;;;;;44.72;23.20;;;154.30;1971.20;;;;;;4879885;29;20025;-78
2022/03/25 02:08:10;;;;;;;30.38;16.33;;;154.20;1971.20;;;;;;4881112;29;20032;-75
2022/03/25 02:10:37;;;;;;;21.88;12.60;;;179.20;1971.20;;;;;;4879719;29;20029;-76
2022/03/25 02:13:03;;;;;;;23.88;11.15;;;154.50;1971.20;;;;;;4879782;29;20029;-75
2022/03/25 02:15:38;;;;;;;18.85;10.98;;;179.20;1945.60;;;;;;4879714;29;20028;-75
2022/03/25 02:18:06;;;;;;;15.77;10.95;;;154.50;1945.60;;;;;;4880940;29;20116;-75
2022/03/25 02:20:33;;;;;;;21.30;10.55;;;179.20;1945.60;;;;;;4880963;29;20021;-75
2022/03/25 02:23:00;;;;;;;26.05;11.23;;;154.50;1945.60;;;;;;4879544;29;20033;-76
2022/03/25 02:25:28;;;;;;;28.67;14.15;;;179.20;1945.60;;;;;;4878942;29;20522;-73
2022/03/25 02:27:53;;;;;;;35.95;19.38;;;179.30;1945.60;;;;;;4879560;29;20045;-76
2022/03/25 02:30:20;;;;;;;57.90;24.92;;;154.50;1945.60;;;;;;4879515;29;20033;-75
2022/03/25 02:32:46;;;;;;;31.98;14.82;;;179.20;1945.60;;;;;;4879215;29;20033;-76
2022/03/25 02:35:12;;;;;;;21.25;13.45;;;154.50;1945.60;;;;;;4879329;29;20377;-75
2022/03/25 02:37:37;;;;;;;30.88;14.63;;;154.50;1945.60;;;;;;4880334;29;20029;-76
2022/03/25 02:40:04;;;;;;;28.85;13.60;;;154.50;1945.60;;;;;;4879317;29;20032;-74
2022/03/25 02:42:30;;;;;;;36.05;15.43;;;179.20;1945.60;;;;;;4880367;29;20037;-72
2022/03/25 02:44:55;;;;;;;25.65;15.65;;;154.20;1971.20;;;;;;4878681;29;20549;-75
2022/03/25 02:47:21;;;;;;;33.75;15.10;;;154.10;1996.80;;;;;;4880446;29;20021;-75
2022/03/25 02:49:47;;;;;;;32.42;16.38;;;154.10;1996.80;;;;;;4880070;29;20027;-77
2022/03/25 02:52:13;;;;;;;26.70;14.43;;;154.00;1996.80;;;;;;4878932;29;20352;-76
2022/03/25 02:54:39;;;;;;;27.65;14.90;;;154.00;2022.40;;;;;;4879198;29;20146;-77
2022/03/25 02:57:05;;;;;;;26.05;14.85;;;153.90;2022.40;;;;;;4880280;29;20021;-74
2022/03/25 02:59:31;;;;;;;30.73;17.63;;;153.80;2022.40;;;;;;4878833;29;20029;-77
2022/03/25 03:01:57;;;;;;;26.85;15.80;;;153.60;2048.00;;;;;;4879012;29;20373;-77
2022/03/25 03:04:23;;;;;;;30.10;18.90;;;153.60;2048.00;;;;;;4878743;29;20059;-76
2022/03/25 03:06:49;;;;;;;38.50;18.80;;;128.80;2073.60;;;;;;4878365;29;20025;-75
2022/03/25 03:09:15;;;;;;;32.03;18.13;;;153.60;2073.60;;;;;;4878945;29;20036;-77
2022/03/25 03:11:40;;;;;;;35.55;20.63;;;153.60;2073.60;;;;;;4878964;29;20029;-77
2022/03/25 03:14:06;;;;;;;39.92;20.98;;;128.80;2073.60;;;;;;4880166;29;20483;-75
2022/03/25 03:16:32;;;;;;;31.30;19.02;;;128.80;2073.60;;;;;;4878961;29;20025;-75
2022/03/25 03:18:58;;;;;;;34.63;19.00;;;128.70;2099.20;;;;;;4878918;29;20475;-73
2022/03/25 03:21:27;;;;;;;32.65;20.20;;;128.70;2099.20;;;;;;4878251;29;20028;-76
2022/03/25 03:23:53;;;;;;;34.17;19.92;;;128.80;2099.20;;;;;;4880075;29;20025;-76
2022/03/25 03:26:20;;;;;;;28.00;17.52;;;128.50;2099.20;;;;;;4878775;29;20478;-74
2022/03/25 03:28:46;;;;;;;27.02;15.05;;;128.60;2099.20;;;;;;4878494;29;20033;-75
2022/03/25 03:31:11;;;;;;;23.85;15.10;;;128.60;2099.20;;;;;;4878788;29;20032;-77
2022/03/25 03:33:37;;;;;;;32.97;17.25;;;128.40;2124.80;;;;;;4878433;29;20029;-74
2022/03/25 03:36:04;;;;;;;29.17;16.00;;;128.30;2124.80;;;;;;4878649;29;20025;-73
2022/03/25 03:38:30;;;;;;;23.67;14.00;;;128.20;2124.80;;;;;;4879981;29;20074;-75
2022/03/25 03:40:56;;;;;;;29.33;16.80;;;128.20;2150.40;;;;;;4878283;29;20037;-75
2022/03/25 03:43:22;;;;;;;29.45;17.10;;;128.30;2150.40;;;;;;4878375;29;20089;-80
2022/03/25 03:45:48;;;;;;;32.35;16.48;;;103.30;2124.80;;;;;;4878654;29;20021;-76
2022/03/25 03:48:14;;;;;;;28.73;19.08;;;128.00;2150.40;;;;;;4878444;29;20035;-74
2022/03/25 03:50:40;;;;;;;32.67;21.23;;;128.10;2150.40;;;;;;4879209;29;20421;-78
2022/03/25 03:53:06;;;;;;;32.25;20.67;;;128.10;2150.40;;;;;;4882344;29;20086;-74
2022/03/25 03:55:32;;;;;;;35.22;21.67;;;103.30;2150.40;;;;;;4883519;29;20045;-77
2022/03/25 03:57:58;;;;;;;37.30;20.77;;;103.30;2150.40;;;;;;4882547;29;20056;-78
2022/03/25 04:00:28;;;;;;;38.83;23.52;;;103.20;2150.40;;;;;;4883562;29;20021;-76
2022/03/25 04:02:55;;;;;;;46.47;26.10;;;103.30;2150.40;;;;;;4881939;29;20033;-74
2022/03/25 04:05:21;;;;;;;47.50;27.92;;;103.30;2150.40;;;;;;4882457;29;20055;-76
2022/03/25 04:07:48;;;;;;;49.65;28.90;;;103.10;2150.40;;;;;;4881998;29;20029;-75
2022/03/25 04:10:17;;;;;;;43.33;24.25;;;103.10;2176.00;;;;;;4882725;29;20031;-74
2022/03/25 04:12:43;;;;;;;42.88;24.50;;;103.30;2150.40;;;;;;4882968;29;20536;-77
2022/03/25 04:15:11;;;;;;;44.97;21.83;;;128.00;2176.00;;;;;;4881952;29;20360;-78
2022/03/25 04:17:40;;;;;;;32.00;18.25;;;103.20;2150.40;;;;;;4882809;29;20460;-75
2022/03/25 04:20:13;;;;;;;28.98;16.83;;;103.30;2150.40;;;;;;4881819;29;20038;-76
2022/03/25 04:22:39;;;;;;;31.70;15.68;;;103.20;2150.40;;;;;;4886516;29;20061;-73
2022/03/25 04:25:07;;;;;;;33.58;15.55;;;103.10;2150.40;;;;;;4911439;29;20041;-74
2022/03/25 04:27:34;;;;;;;34.72;16.75;;;103.30;2150.40;;;;;;4885110;29;20032;-79
2022/03/25 04:30:00;;;;;;;34.22;16.15;;;103.20;2150.40;;;;;;4885165;29;20029;-75
2022/03/25 04:32:26;;;;;;;32.97;16.83;;;128.00;2176.00;;;;;;4901409;29;20115;-76
2022/03/25 04:34:51;;;;;;;33.65;20.80;;;128.20;2176.00;;;;;;4901260;29;20028;-74
2022/03/25 04:37:17;;;;;;;39.22;23.85;;;128.10;2150.40;;;;;;4901224;29;20024;-77
2022/03/25 04:39:43;;;;;;;44.17;23.27;;;128.10;2150.40;;;;;;4901475;29;20055;-77
2022/03/25 04:42:09;;;;;;;33.67;19.55;;;128.10;2176.00;;;;;;4884541;29;20463;-75
2022/03/25 04:44:35;;;;;;;38.80;20.95;;;128.10;2176.00;;;;;;4884111;29;20065;-78
2022/03/25 04:47:01;;;;;;;29.05;19.00;;;128.10;2176.00;;;;;;4884531;29;20079;-76
2022/03/25 04:49:27;;;;;;;35.38;19.38;;;128.00;2176.00;;;;;;4884328;29;20032;-77
2022/03/25 04:51:53;;;;;;;47.22;25.83;;;128.10;2176.00;;;;;;4884197;29;20052;-78
2022/03/25 04:54:19;;;;;;;48.80;28.55;;;128.20;2176.00;;;;;;4884300;29;20063;-77
2022/03/25 04:56:45;;;;;;;81.57;51.33;;;128.30;2176.00;;;;;;4884388;29;20036;-77
2022/03/25 04:59:11;;;;;;;86.82;61.47;;;128.00;2176.00;;;;;;4884048;29;20119;-74
2022/03/25 05:01:37;;;;;;;76.53;49.75;;;103.30;2150.40;;;;;;4883898;29;20025;-73
2022/03/25 05:04:02;;;;;;;55.35;36.92;;;103.20;2150.40;;;;;;4883222;29;20391;-74
2022/03/25 05:06:28;;;;;;;53.42;34.70;;;103.20;2176.00;;;;;;4883871;29;20063;-77
2022/03/25 05:08:54;;;;;;;39.80;21.45;;;128.00;2201.60;;;;;;4900726;29;20021;-75
2022/03/25 05:11:20;;;;;;;38.35;19.58;;;128.10;2176.00;;;;;;4884077;29;20466;-76
2022/03/25 05:13:46;;;;;;;35.60;18.98;;;128.10;2150.40;;;;;;4901029;29;20034;-74
2022/03/25 05:16:12;;;;;;;32.65;20.33;;;128.00;2150.40;;;;;;4884027;29;20025;-74
2022/03/25 05:18:39;;;;;;;28.63;17.23;;;103.30;2150.40;;;;;;4883631;29;20467;-79
2022/03/25 05:21:05;;;;;;;29.55;17.80;;;128.00;2176.00;;;;;;4883870;29;20047;-77
2022/03/25 05:23:31;;;;;;;26.83;17.20;;;128.00;2150.40;;;;;;4883926;29;20468;-76
2022/03/25 05:25:56;;;;;;;33.53;19.20;;;128.20;2150.40;;;;;;4883313;29;20052;-77
2022/03/25 05:28:22;;;;;;;30.75;19.35;;;128.20;2176.00;;;;;;4883741;29;20424;-74
2022/03/25 05:30:48;;;;;;;37.15;19.77;;;128.00;2176.00;;;;;;4900512;29;20032;-75
2022/03/25 05:33:14;;;;;;;46.55;22.98;;;128.10;2176.00;;;;;;4900445;29;20471;-74
2022/03/25 05:35:40;;;;;;;41.42;20.80;;;128.20;2176.00;;;;;;4900580;29;20085;-75
2022/03/25 05:38:06;;;;;;;38.75;22.02;;;128.30;2176.00;;;;;;4883586;29;20025;-76
2022/03/25 05:40:32;;;;;;;41.03;21.02;;;128.40;2176.00;;;;;;4883392;29;20107;-76
2022/03/25 05:42:58;;;;;;;36.80;21.05;;;128.50;2150.40;;;;;;4883381;29;20036;-77
2022/03/25 05:45:24;;;;;;;34.90;21.30;;;128.60;2150.40;;;;;;4883479;29;20024;-74
2022/03/25 05:47:50;;;;;;;40.13;21.88;;;128.70;2150.40;;;;;;4883067;29;20024;-76
2022/03/25 05:50:17;;;;;;;49.47;30.27;;;128.80;2124.80;;;;;;4883358;29;20067;-76
2022/03/25 05:52:43;;;;;;;45.53;26.15;;;128.80;2124.80;;;;;;4883275;29;20035;-78
2022/03/25 05:55:10;;;;;;;46.92;25.88;;;153.60;2124.80;;;;;;4883004;29;20168;-76
2022/03/25 05:57:36;;;;;;;40.33;23.15;;;153.80;2099.20;;;;;;4883278;29;20108;-76
2022/03/25 06:00:04;;;;;;;33.70;18.95;;;154.00;2124.80;;;;;;4883197;29;20451;-78
2022/03/25 06:02:30;;;;;;;33.05;19.83;;;154.10;2099.20;;;;;;4899618;29;20037;-77
2022/03/25 06:04:56;;;;;;;34.63;22.67;;;154.10;2048.00;;;;;;4883213;29;20031;-76
2022/03/25 06:07:24;;;;;;;34.63;25.70;;;154.20;2048.00;;;;;;4882986;29;20048;-76
2022/03/25 06:09:50;;;;;;;36.95;21.33;;;154.20;2048.00;;;;;;4882765;29;20024;-74
2022/03/25 06:12:16;;;;;;;36.42;19.25;;;154.20;2022.40;;;;;;4882986;29;20036;-78
2022/03/25 06:14:42;;;;;;;33.00;20.52;;;154.20;2022.40;;;;;;4898860;29;20455;-77
2022/03/25 06:17:07;;;;;;;32.13;19.42;;;154.40;2022.40;;;;;;4882944;29;20031;-75
2022/03/25 06:19:33;;;;;;;34.35;21.48;;;179.30;2022.40;;;;;;4882938;29;20032;-76
2022/03/25 06:21:59;;;;;;;40.08;25.70;;;179.40;2022.40;;;;;;4882448;29;20156;-77
2022/03/25 06:24:25;;;;;;;40.15;26.85;;;179.50;2022.40;;;;;;4899289;29;20031;-75
2022/03/25 06:26:52;;;;;;;52.60;28.75;;;179.60;1996.80;;;;;;4882642;29;20033;-75
2022/03/25 06:29:19;;;;;;;46.85;28.75;;;179.70;1996.80;;;;;;4899447;29;20035;-76
2022/03/25 06:31:45;;;;;;;49.70;29.38;;;179.80;1971.20;;;;;;4882740;29;20025;-75
2022/03/25 06:34:11;;;;;;;49.25;29.45;;;179.90;1971.20;;;;;;4882577;29;20029;-78
2022/03/25 06:36:37;;;;;;;57.00;35.20;;;180.00;1945.60;;;;;;4882181;29;20355;-76
2022/03/25 06:39:03;;;;;;;55.17;32.45;;;204.80;1945.60;;;;;;4882379;29;20029;-78
2022/03/25 06:41:29;;;;;;;57.03;31.05;;;204.80;1945.60;;;;;;4882508;29;20021;-78
2022/03/25 06:43:56;;;;;;;66.50;40.40;;;205.10;1945.60;;;;;;4898561;29;20036;-77
2022/03/25 06:46:22;;;;;;;59.70;37.97;;;205.30;1945.60;;;;;;4899338;29;20029;-80
2022/03/25 06:48:48;;;;;;;39.03;26.48;;;205.70;1894.40;;;;;;4882314;29;20469;-79
2022/03/25 06:51:14;;;;;;;30.88;19.90;;;230.90;1766.40;;;;;;4881977;29;20024;-78
2022/03/25 06:53:40;;;;;;;35.33;22.50;;;231.30;1715.20;;;;;;4882229;29;20116;-80
2022/03/25 06:56:06;;;;;;;32.60;19.80;;;256.50;1664.00;;;;;;4899090;29;20020;-76
2022/03/25 06:58:34;;;;;;;32.65;21.20;;;256.70;1638.40;;;;;;4881594;29;20036;-76
2022/03/25 07:01:00;;;;;;;26.85;17.55;;;281.70;1638.40;;;;;;4882421;29;20020;-74
2022/03/25 07:03:27;;;;;;;39.65;25.75;;;282.00;1612.80;;;;;;4899190;29;20036;-74
2022/03/25 07:05:53;;;;;;;56.80;35.00;;;282.10;1612.80;;;;;;4882684;29;20530;-74
2022/03/25 07:08:22;;;;;;;38.83;28.23;;;282.40;1612.80;;;;;;4882263;29;20459;-74
2022/03/25 07:10:48;;;;;;;45.75;30.85;;;307.40;1612.80;;;;;;4881606;29;20032;-76
2022/03/25 07:13:14;;;;;;;28.25;21.40;;;307.40;1612.80;;;;;;4898661;29;20475;-76
2022/03/25 07:15:40;;;;;;;33.63;22.30;;;307.40;1612.80;;;;;;4881725;29;20048;-77
2022/03/25 07:18:06;;;;;;;34.45;25.52;;;307.60;1587.20;;;;;;4898394;29;20115;-77
2022/03/25 07:20:32;;;;;;;24.08;15.90;;;307.80;1587.20;;;;;;4881539;29;20020;-76
2022/03/25 07:22:58;;;;;;;20.83;13.00;;;308.00;1536.00;;;;;;4881833;29;20159;-75
2022/03/25 07:25:25;;;;;;;23.63;17.30;;;308.10;1536.00;;;;;;4897533;29;20059;-76
2022/03/25 07:27:51;;;;;;;31.90;22.30;;;332.90;1536.00;;;;;;4881868;29;20025;-74
2022/03/25 07:30:18;;;;;;;19.80;11.88;;;333.20;1510.40;;;;;;4881809;29;20037;-75
2022/03/25 07:32:44;;;;;;;18.85;12.32;;;333.40;1510.40;;;;;;4881499;29;20032;-76
2022/03/25 07:35:11;;;;;;;26.52;17.35;;;333.40;1510.40;;;;;;4881720;29;20139;-77
2022/03/25 07:37:41;;;;;;;30.13;17.17;;;333.50;1510.40;;;;;;4898832;29;20080;-76
2022/03/25 07:40:09;;;;;;;24.77;15.95;;;358.40;1484.80;;;;;;4898379;29;20035;-74
2022/03/25 07:42:39;;;;;;;18.58;12.90;;;358.50;1459.20;;;;;;4881681;29;20527;-75
2022/03/25 07:45:10;;;;;;;21.27;14.95;;;358.60;1459.20;;;;;;4892222;29;20039;-76
2022/03/25 07:47:43;;;;;;;21.65;13.05;;;358.80;1433.60;;;;;;4898470;29;20036;-76
2022/03/25 07:50:11;;;;;;;19.58;12.27;;;358.80;1433.60;;;;;;4899327;29;20025;-75
2022/03/25 07:52:37;;;;;;;19.27;11.73;;;359.00;1433.60;;;;;;4882303;29;20133;-76
2022/03/25 07:55:03;;;;;;;19.98;11.32;;;359.00;1408.00;;;;;;4881505;29;20025;-76
2022/03/25 07:57:29;;;;;;;20.98;12.80;;;359.10;1408.00;;;;;;4881454;29;20027;-75
2022/03/25 07:59:55;;;;;;;66.78;16.58;;;359.20;1382.40;;;;;;4881115;29;20451;-79
2022/03/25 08:02:21;;;;;;;28.15;12.13;;;359.30;1382.40;;;;;;4898164;29;20032;-77
2022/03/25 08:04:46;;;;;;;20.05;13.25;;;384.00;1382.40;;;;;;4881432;29;20033;-76
2022/03/25 08:07:12;;;;;;;27.33;14.65;;;384.10;1356.80;;;;;;4897737;29;20021;-75
2022/03/25 08:09:38;;;;;;;22.48;13.10;;;384.10;1382.40;;;;;;4898552;29;20464;-76
2022/03/25 08:12:05;;;;;;;27.38;17.92;;;384.20;1356.80;;;;;;4881386;29;20032;-76
2022/03/25 08:14:31;;;;;;;32.83;17.50;;;384.20;1356.80;;;;;;4881204;29;20029;-78
2022/03/25 08:16:56;;;;;;;26.60;16.15;;;384.20;1382.40;;;;;;4881374;29;20115;-78
2022/03/25 08:19:22;;;;;;;33.13;17.92;;;384.30;1382.40;;;;;;4881279;29;20055;-74
2022/03/25 08:21:48;;;;;;;27.08;14.90;;;384.30;1356.80;;;;;;4880987;29;20076;-75
2022/03/25 08:29:42;;;;;;;21.05;13.82;;;384.40;1382.40;;;;;;4897587;29;20044;-76
2022/03/25 08:32:08;;;;;;;20.25;12.52;;;384.40;1382.40;;;;;;4898249;29;20028;-75
2022/03/25 08:34:34;;;;;;;24.00;14.02;;;384.40;1356.80;;;;;;4881034;29;20108;-75
2022/03/25 08:37:00;;;;;;;25.38;14.27;;;384.40;1382.40;;;;;;4882202;29;20455;-76
2022/03/25 08:39:26;;;;;;;19.55;13.65;;;384.50;1356.80;;;;;;4901427;29;20024;-76
2022/03/25 08:41:52;;;;;;;20.20;12.90;;;384.50;1356.80;;;;;;4884242;29;20478;-77
2022/03/25 08:44:18;;;;;;;19.58;9.88;;;384.60;1356.80;;;;;;4884576;29;20360;-77
2022/03/25 08:46:43;;;;;;;27.13;15.07;;;384.60;1356.80;;;;;;4884642;29;20048;-76
2022/03/25 08:49:10;;;;;;;23.02;14.48;;;384.70;1356.80;;;;;;4901301;29;20056;-77
2022/03/25 08:51:36;;;;;;;18.75;12.52;;;384.70;1356.80;;;;;;4901124;29;20025;-77
2022/03/25 08:54:02;;;;;;;20.55;12.50;;;384.70;1356.80;;;;;;4884508;29;20447;-77
2022/03/25 08:56:28;;;;;;;18.67;11.00;;;384.80;1356.80;;;;;;4884070;29;20028;-74
2022/03/25 08:58:58;;;;;;;28.55;14.80;;;384.70;1356.80;;;;;;4884104;29;20025;-77
2022/03/25 09:01:24;;;;;;;25.65;11.68;;;384.90;1356.80;;;;;;4884183;29;20080;-78
2022/03/25 09:03:50;;;;;;;24.67;14.00;;;384.90;1356.80;;;;;;4884050;29;20103;-78
2022/03/25 09:06:17;;;;;;;19.77;10.95;;;409.70;1382.40;;;;;;4884149;29;20447;-77
2022/03/25 09:08:42;;;;;;;28.67;14.57;;;409.70;1356.80;;;;;;4900772;29;20136;-75
2022/03/25 09:11:11;;;;;;;26.55;12.45;;;409.70;1356.80;;;;;;4883831;29;20115;-77
2022/03/25 09:13:37;;;;;;;19.88;12.15;;;409.80;1356.80;;;;;;4884049;29;20108;-77
2022/03/25 09:16:03;;;;;;;17.00;10.30;;;410.00;1356.80;;;;;;4900827;29;20042;-79
2022/03/25 09:18:29;;;;;;;15.10;10.15;;;410.00;1331.20;;;;;;4883693;29;20459;-75
2022/03/25 09:20:55;;;;;;;14.57;9.40;;;410.10;1331.20;;;;;;4879171;29;20032;-76
2022/03/25 09:23:23;;;;;;;14.95;9.18;;;410.20;1331.20;;;;;;4883172;29;20043;-75
2022/03/25 09:25:49;;;;;;;17.20;11.65;;;410.10;1331.20;;;;;;4894974;29;20127;-76
2022/03/25 09:28:15;;;;;;;17.75;11.27;;;410.20;1331.20;;;;;;4919183;29;20108;-76
2022/03/25 09:30:41;;;;;;;13.70;10.25;;;410.30;1331.20;;;;;;4901827;29;20024;-79
2022/03/25 09:33:07;;;;;;;14.05;8.93;;;410.40;1331.20;;;;;;4919294;29;20084;-78
2022/03/25 09:35:37;;;;;;;15.73;10.25;;;410.40;1331.20;;;;;;4892339;29;20084;-77
2022/03/25 09:38:03;;;;;;;16.27;11.65;;;435.20;1305.60;;;;;;4893697;29;20024;-76
2022/03/25 09:40:29;;;;;;;16.08;8.10;;;410.50;1305.60;;;;;;4901888;29;20027;-76
2022/03/25 09:42:57;;;;;;;15.93;9.30;;;435.30;1305.60;;;;;;4901808;29;20479;-77
2022/03/25 09:45:33;;;;;;;15.27;9.05;;;435.30;1331.20;;;;;;4901730;29;20034;-75
2022/03/25 09:48:10;;;;;;;13.57;8.55;;;435.40;1305.60;;;;;;4899961;29;20079;-77
2022/03/25 09:50:39;;;;;;;20.20;9.15;;;435.50;1280.00;;;;;;4882028;29;20060;-77
2022/03/25 09:53:07;;;;;;;23.15;9.15;;;435.50;1280.00;;;;;;4882704;29;20052;-76
2022/03/25 09:55:44;;;;;;;20.38;8.68;;;435.60;1280.00;;;;;;4882812;29;20025;-77
2022/03/25 09:58:24;;;;;;;17.02;8.48;;;435.80;1280.00;;;;;;4882698;29;20032;-77
2022/03/25 10:00:51;;;;;;;15.90;7.93;;;435.80;1254.40;;;;;;4882644;29;20111;-76
2022/03/25 10:03:42;;;;;;;12.80;8.07;;;435.80;1254.40;;;;;;4882414;29;20037;-77
2022/03/25 10:06:12;;;;;;;16.70;8.13;;;435.90;1254.40;;;;;;4882701;29;20403;-76
2022/03/25 10:08:38;;;;;;;21.40;8.95;;;435.90;1254.40;;;;;;4899906;29;20111;-76
2022/03/25 10:11:37;;;;;;;14.07;8.40;;;436.10;1228.80;;;;;;4882977;29;20025;-76
2022/03/25 10:14:21;;;;;;;13.73;8.15;;;436.10;1228.80;;;;;;4852057;29;20427;-75
2022/03/25 10:16:49;;;;;;;18.02;8.45;;;460.80;1228.80;;;;;;4882952;29;20111;-75
2022/03/25 10:19:19;;;;;;;16.63;9.60;;;460.80;1254.40;;;;;;4883524;29;20052;-74
2022/03/25 10:21:53;;;;;;;12.50;9.30;;;460.80;1254.40;;;;;;4883167;29;20048;-74
2022/03/25 10:24:35;;;;;;;15.48;8.15;;;461.10;1254.40;;;;;;4882176;29;20024;-75
2022/03/25 10:27:05;;;;;;;29.33;11.43;;;461.00;1228.80;;;;;;4898993;29;20053;-74
2022/03/25 10:29:31;;;;;;;23.58;10.95;;;461.10;1228.80;;;;;;4899140;29;20252;-75
2022/03/25 10:32:11;;;;;;;12.35;9.30;;;461.20;1254.40;;;;;;4882516;29;20525;-76
2022/03/25 10:34:38;;;;;;;12.73;7.85;;;461.40;1228.80;;;;;;4882503;29;20495;-77
2022/03/25 10:37:06;;;;;;;13.85;8.73;;;461.50;1177.60;;;;;;4900951;29;20024;-78
2022/03/25 10:39:33;;;;;;;15.35;10.43;;;461.50;1203.20;;;;;;4883341;29;20084;-77
2022/03/25 10:42:04;;;;;;;17.30;10.88;;;461.60;1228.80;;;;;;4882243;29;20115;-78
2022/03/25 10:44:40;;;;;;;12.35;9.10;;;486.40;1228.80;;;;;;4899448;29;20051;-77
2022/03/25 10:47:15;;;;;;;15.85;8.30;;;486.40;1203.20;;;;;;4882339;29;20029;-78
2022/03/25 10:49:43;;;;;;;17.15;10.75;;;486.40;1203.20;;;;;;4882184;29;20099;-78
2022/03/25 10:52:30;;;;;;;14.38;9.32;;;486.60;1203.20;;;;;;4898944;29;20104;-77
2022/03/25 10:55:20;;;;;;;16.08;8.82;;;487.00;1177.60;;;;;;4881849;29;20495;-76
2022/03/25 10:57:54;;;;;;;17.35;10.23;;;487.10;1152.00;;;;;;4899142;29;20024;-76
2022/03/25 11:00:21;;;;;;;23.48;16.38;;;486.70;1152.00;;;;;;4882095;29;20442;-76
2022/03/25 11:02:47;;;;;;;13.98;7.95;;;487.30;1152.00;;;;;;4881618;29;20035;-75
2022/03/25 11:05:14;;;;;;;13.63;8.93;;;512.10;1126.40;;;;;;4882010;29;20370;-76
2022/03/25 11:07:46;;;;;;;11.80;7.53;;;512.00;1126.40;;;;;;4881815;29;20530;-76
2022/03/25 11:10:17;;;;;;;15.77;8.88;;;512.20;1100.80;;;;;;4881727;29;20434;-76
2022/03/25 11:12:53;;;;;;;12.30;6.75;;;512.40;1126.40;;;;;;4881996;29;20029;-76
2022/03/25 11:15:21;;;;;;;12.13;7.38;;;512.60;1075.20;;;;;;4881866;29;20063;-76
2022/03/25 11:17:47;;;;;;;27.35;9.90;;;512.70;1049.60;;;;;;4881261;29;20055;-77
2022/03/25 11:20:19;;;;;;;9.05;5.90;;;537.70;1049.60;;;;;;4881572;29;20032;-76
2022/03/25 11:22:51;;;;;;;19.55;12.23;;;537.80;1024.00;;;;;;4881737;29;20033;-76
2022/03/25 11:25:23;;;;;;;15.55;10.68;;;538.00;1024.00;;;;;;4881664;29;20116;-77
2022/03/25 11:27:54;;;;;;;15.13;9.70;;;538.50;998.40;;;;;;4882593;29;20535;-77
2022/03/25 11:30:20;;;;;;;9.15;4.65;;;563.30;998.40;;;;;;4881177;29;20120;-73
2022/03/25 11:33:03;;;;;;;11.68;5.00;;;538.30;921.60;;;;;;4881733;29;20115;-73
2022/03/25 11:35:32;;;;;;;14.38;7.97;;;538.30;921.60;;;;;;4881657;29;20028;-74
2022/03/25 11:38:18;;;;;;;12.90;6.80;;;563.20;947.20;;;;;;4897782;29;20029;-77
2022/03/25 11:40:52;;;;;;;12.13;5.82;;;563.20;921.60;;;;;;4882941;29;20091;-74
2022/03/25 11:43:28;;;;;;;15.43;7.38;;;563.50;921.60;;;;;;4881516;29;20055;-75
2022/03/25 11:46:27;;;;;;;12.23;6.70;;;563.70;947.20;;;;;;4903766;29;20021;-77
2022/03/25 11:48:53;;;;;;;10.38;5.28;;;564.00;921.60;;;;;;4883877;29;20037;-74
2022/03/25 11:51:28;;;;;;;13.63;9.35;;;564.00;896.00;;;;;;4881285;29;20076;-74
2022/03/25 11:53:54;;;;;;;19.98;11.00;;;564.00;896.00;;;;;;4898263;29;20025;-74
2022/03/25 11:56:21;;;;;;;13.80;9.27;;;588.90;921.60;;;;;;4881618;29;20057;-76
2022/03/25 11:58:59;;;;;;;13.68;5.32;;;588.90;921.60;;;;;;4881182;29;20024;-76
2022/03/25 12:01:26;;;;;;;7.43;4.05;;;589.00;870.40;;;;;;4881444;29;20119;-77
2022/03/25 12:03:57;;;;;;;9.35;5.60;;;588.90;870.40;;;;;;4881063;29;20033;-77
2022/03/25 12:06:29;;;;;;;18.95;12.70;;;564.10;896.00;;;;;;4898068;29;20021;-77
2022/03/25 12:09:06;;;;;;;20.80;7.18;;;589.00;921.60;;;;;;4880981;29;20359;-76